sensor_id;sensor_type;location;lat;lon;timestamp;P1;durP1;ratioP1;P2;durP2;ratioP2
12407;SDS011;6268;48.188;17.134;2023-05-21T00:02:02;13.95;;;12.55;;
12407;SDS011;6268;48.188;17.134;2023-05-21T00:05:26;12.93;;;11.63;;
12407;SDS011;6268;48.188;17.134;2023-05-21T00:08:48;10.82;;;9.93;;
12407;SDS011;6268;48.188;17.134;2023-05-21T00:12:10;11.55;;;10.55;;
12407;SDS011;6268;48.188;17.134;2023-05-21T00:15:31;14.63;;;13.13;;
12407;SDS011;6268;48.188;17.134;2023-05-21T00:18:52;16.23;;;13.80;;
12407;SDS011;6268;48.188;17.134;2023-05-21T00:22:17;13.63;;;12.40;;
12407;SDS011;6268;48.188;17.134;2023-05-21T00:25:38;13.05;;;11.57;;
12407;SDS011;6268;48.188;17.134;2023-05-21T00:28:59;13.07;;;11.02;;
12407;SDS011;6268;48.188;17.134;2023-05-21T00:32:20;11.88;;;10.60;;
12407;SDS011;6268;48.188;17.134;2023-05-21T00:35:41;11.80;;;10.43;;
12407;SDS011;6268;48.188;17.134;2023-05-21T00:39:05;11.73;;;10.65;;
12407;SDS011;6268;48.188;17.134;2023-05-21T00:42:26;11.50;;;10.43;;
12407;SDS011;6268;48.188;17.134;2023-05-21T00:45:52;11.45;;;10.38;;
12407;SDS011;6268;48.188;17.134;2023-05-21T00:49:14;11.10;;;10.10;;
12407;SDS011;6268;48.188;17.134;2023-05-21T00:52:36;12.25;;;10.45;;
12407;SDS011;6268;48.188;17.134;2023-05-21T00:56:02;11.20;;;10.05;;
12407;SDS011;6268;48.188;17.134;2023-05-21T00:59:24;12.18;;;10.88;;
12407;SDS011;6268;48.188;17.134;2023-05-21T01:02:45;12.68;;;10.48;;
12407;SDS011;6268;48.188;17.134;2023-05-21T01:06:08;10.27;;;9.40;;
12407;SDS011;6268;48.188;17.134;2023-05-21T01:09:29;12.65;;;10.57;;
12407;SDS011;6268;48.188;17.134;2023-05-21T01:12:53;13.60;;;12.25;;
12407;SDS011;6268;48.188;17.134;2023-05-21T01:16:16;11.57;;;10.48;;
12407;SDS011;6268;48.188;17.134;2023-05-21T01:19:38;11.18;;;10.07;;
12407;SDS011;6268;48.188;17.134;2023-05-21T01:23:03;10.57;;;9.57;;
12407;SDS011;6268;48.188;17.134;2023-05-21T01:26:25;9.80;;;8.95;;
12407;SDS011;6268;48.188;17.134;2023-05-21T01:29:46;11.27;;;10.18;;
12407;SDS011;6268;48.188;17.134;2023-05-21T01:33:09;14.77;;;10.20;;
12407;SDS011;6268;48.188;17.134;2023-05-21T01:36:37;11.80;;;10.60;;
12407;SDS011;6268;48.188;17.134;2023-05-21T01:40:09;11.52;;;10.40;;
12407;SDS011;6268;48.188;17.134;2023-05-21T01:43:37;10.70;;;9.55;;
12407;SDS011;6268;48.188;17.134;2023-05-21T01:47:02;11.25;;;10.05;;
12407;SDS011;6268;48.188;17.134;2023-05-21T01:50:24;10.35;;;9.45;;
12407;SDS011;6268;48.188;17.134;2023-05-21T01:53:47;12.70;;;10.48;;
12407;SDS011;6268;48.188;17.134;2023-05-21T01:57:09;13.85;;;10.15;;
12407;SDS011;6268;48.188;17.134;2023-05-21T02:00:31;10.40;;;9.50;;
12407;SDS011;6268;48.188;17.134;2023-05-21T02:03:53;10.30;;;9.25;;
12407;SDS011;6268;48.188;17.134;2023-05-21T02:07:15;12.55;;;10.25;;
12407;SDS011;6268;48.188;17.134;2023-05-21T02:10:38;10.93;;;9.75;;
12407;SDS011;6268;48.188;17.134;2023-05-21T02:14:01;10.52;;;9.55;;
12407;SDS011;6268;48.188;17.134;2023-05-21T02:17:23;11.18;;;10.07;;
12407;SDS011;6268;48.188;17.134;2023-05-21T02:20:46;11.07;;;10.00;;
12407;SDS011;6268;48.188;17.134;2023-05-21T02:24:08;11.57;;;9.68;;
12407;SDS011;6268;48.188;17.134;2023-05-21T02:27:29;9.95;;;8.95;;
12407;SDS011;6268;48.188;17.134;2023-05-21T02:30:52;12.90;;;9.38;;
12407;SDS011;6268;48.188;17.134;2023-05-21T02:34:13;10.65;;;9.52;;
12407;SDS011;6268;48.188;17.134;2023-05-21T02:37:36;9.82;;;9.02;;
12407;SDS011;6268;48.188;17.134;2023-05-21T02:40:58;11.52;;;9.70;;
12407;SDS011;6268;48.188;17.134;2023-05-21T02:44:19;10.82;;;9.80;;
12407;SDS011;6268;48.188;17.134;2023-05-21T02:47:44;10.32;;;9.30;;
12407;SDS011;6268;48.188;17.134;2023-05-21T02:51:05;10.25;;;9.27;;
12407;SDS011;6268;48.188;17.134;2023-05-21T02:54:26;11.13;;;10.10;;
12407;SDS011;6268;48.188;17.134;2023-05-21T02:57:48;10.82;;;9.77;;
12407;SDS011;6268;48.188;17.134;2023-05-21T03:01:09;10.60;;;9.60;;
12407;SDS011;6268;48.188;17.134;2023-05-21T03:04:39;10.70;;;9.70;;
12407;SDS011;6268;48.188;17.134;2023-05-21T03:08:13;10.02;;;9.23;;
12407;SDS011;6268;48.188;17.134;2023-05-21T03:11:37;10.45;;;9.45;;
12407;SDS011;6268;48.188;17.134;2023-05-21T03:15:14;10.75;;;9.75;;
12407;SDS011;6268;48.188;17.134;2023-05-21T03:18:40;10.52;;;9.50;;
12407;SDS011;6268;48.188;17.134;2023-05-21T03:22:11;9.85;;;8.95;;
12407;SDS011;6268;48.188;17.134;2023-05-21T03:25:47;10.20;;;9.25;;
12407;SDS011;6268;48.188;17.134;2023-05-21T03:29:14;9.75;;;8.93;;
12407;SDS011;6268;48.188;17.134;2023-05-21T03:32:38;10.30;;;9.30;;
12407;SDS011;6268;48.188;17.134;2023-05-21T03:36:00;10.27;;;9.30;;
12407;SDS011;6268;48.188;17.134;2023-05-21T03:39:23;9.93;;;8.93;;
12407;SDS011;6268;48.188;17.134;2023-05-21T03:42:44;11.77;;;9.15;;
12407;SDS011;6268;48.188;17.134;2023-05-21T03:46:06;10.35;;;8.85;;
12407;SDS011;6268;48.188;17.134;2023-05-21T03:49:27;14.60;;;9.20;;
12407;SDS011;6268;48.188;17.134;2023-05-21T03:52:48;9.60;;;8.80;;
12407;SDS011;6268;48.188;17.134;2023-05-21T03:56:11;9.90;;;8.95;;
12407;SDS011;6268;48.188;17.134;2023-05-21T03:59:32;11.57;;;9.07;;
12407;SDS011;6268;48.188;17.134;2023-05-21T04:02:54;11.85;;;9.23;;
12407;SDS011;6268;48.188;17.134;2023-05-21T04:06:15;9.65;;;8.13;;
12407;SDS011;6268;48.188;17.134;2023-05-21T04:09:40;9.77;;;8.70;;
12407;SDS011;6268;48.188;17.134;2023-05-21T04:13:02;9.30;;;8.32;;
12407;SDS011;6268;48.188;17.134;2023-05-21T04:16:24;10.32;;;9.25;;
12407;SDS011;6268;48.188;17.134;2023-05-21T04:19:46;9.57;;;8.65;;
12407;SDS011;6268;48.188;17.134;2023-05-21T04:23:08;9.07;;;8.35;;
12407;SDS011;6268;48.188;17.134;2023-05-21T04:26:30;11.25;;;7.70;;
12407;SDS011;6268;48.188;17.134;2023-05-21T04:29:53;8.75;;;7.82;;
12407;SDS011;6268;48.188;17.134;2023-05-21T04:33:15;9.38;;;7.90;;
12407;SDS011;6268;48.188;17.134;2023-05-21T04:36:36;8.68;;;7.85;;
12407;SDS011;6268;48.188;17.134;2023-05-21T04:40:00;8.68;;;7.97;;
12407;SDS011;6268;48.188;17.134;2023-05-21T04:43:24;10.90;;;7.60;;
12407;SDS011;6268;48.188;17.134;2023-05-21T04:46:47;9.25;;;6.38;;
12407;SDS011;6268;48.188;17.134;2023-05-21T04:50:09;8.80;;;6.63;;
12407;SDS011;6268;48.188;17.134;2023-05-21T04:53:32;8.85;;;6.93;;
12407;SDS011;6268;48.188;17.134;2023-05-21T04:56:53;9.70;;;6.65;;
12407;SDS011;6268;48.188;17.134;2023-05-21T05:00:14;8.35;;;6.40;;
12407;SDS011;6268;48.188;17.134;2023-05-21T05:03:37;10.32;;;8.52;;
12407;SDS011;6268;48.188;17.134;2023-05-21T05:06:59;8.40;;;7.65;;
12407;SDS011;6268;48.188;17.134;2023-05-21T05:10:21;8.38;;;7.53;;
12407;SDS011;6268;48.188;17.134;2023-05-21T05:13:42;8.60;;;7.75;;
12407;SDS011;6268;48.188;17.134;2023-05-21T05:17:04;7.25;;;6.65;;
12407;SDS011;6268;48.188;17.134;2023-05-21T05:20:27;7.95;;;6.57;;
12407;SDS011;6268;48.188;17.134;2023-05-21T05:23:49;7.32;;;6.63;;
12407;SDS011;6268;48.188;17.134;2023-05-21T05:27:10;9.98;;;7.10;;
12407;SDS011;6268;48.188;17.134;2023-05-21T05:30:31;7.82;;;7.10;;
12407;SDS011;6268;48.188;17.134;2023-05-21T05:33:53;7.78;;;7.05;;
12407;SDS011;6268;48.188;17.134;2023-05-21T05:37:16;8.05;;;7.35;;
12407;SDS011;6268;48.188;17.134;2023-05-21T05:40:37;7.90;;;7.20;;
12407;SDS011;6268;48.188;17.134;2023-05-21T05:43:58;7.15;;;6.55;;
12407;SDS011;6268;48.188;17.134;2023-05-21T05:47:20;6.90;;;5.85;;
12407;SDS011;6268;48.188;17.134;2023-05-21T05:50:42;8.63;;;6.85;;
12407;SDS011;6268;48.188;17.134;2023-05-21T05:54:05;8.07;;;6.90;;
12407;SDS011;6268;48.188;17.134;2023-05-21T05:57:27;8.55;;;7.07;;
12407;SDS011;6268;48.188;17.134;2023-05-21T06:00:48;7.55;;;6.82;;
12407;SDS011;6268;48.188;17.134;2023-05-21T06:04:09;8.10;;;7.32;;
12407;SDS011;6268;48.188;17.134;2023-05-21T06:07:32;6.75;;;6.15;;
12407;SDS011;6268;48.188;17.134;2023-05-21T06:10:55;18.02;;;15.30;;
12407;SDS011;6268;48.188;17.134;2023-05-21T06:14:16;10.30;;;9.32;;
12407;SDS011;6268;48.188;17.134;2023-05-21T06:17:40;9.88;;;8.90;;
12407;SDS011;6268;48.188;17.134;2023-05-21T06:21:01;18.50;;;14.35;;
12407;SDS011;6268;48.188;17.134;2023-05-21T06:24:23;7.25;;;6.57;;
12407;SDS011;6268;48.188;17.134;2023-05-21T06:27:45;6.60;;;6.05;;
12407;SDS011;6268;48.188;17.134;2023-05-21T06:31:07;9.65;;;6.10;;
12407;SDS011;6268;48.188;17.134;2023-05-21T06:34:28;7.53;;;6.95;;
12407;SDS011;6268;48.188;17.134;2023-05-21T06:37:49;6.80;;;6.18;;
12407;SDS011;6268;48.188;17.134;2023-05-21T06:41:11;7.47;;;5.93;;
12407;SDS011;6268;48.188;17.134;2023-05-21T06:44:34;6.15;;;5.65;;
12407;SDS011;6268;48.188;17.134;2023-05-21T06:47:55;7.78;;;6.40;;
12407;SDS011;6268;48.188;17.134;2023-05-21T06:51:16;7.28;;;6.60;;
12407;SDS011;6268;48.188;17.134;2023-05-21T06:54:37;8.25;;;7.10;;
12407;SDS011;6268;48.188;17.134;2023-05-21T06:58:04;7.57;;;6.88;;
12407;SDS011;6268;48.188;17.134;2023-05-21T07:01:26;8.63;;;7.20;;
12407;SDS011;6268;48.188;17.134;2023-05-21T07:04:48;7.45;;;6.78;;
12407;SDS011;6268;48.188;17.134;2023-05-21T07:08:09;6.93;;;6.13;;
12407;SDS011;6268;48.188;17.134;2023-05-21T07:11:31;7.82;;;5.80;;
12407;SDS011;6268;48.188;17.134;2023-05-21T07:14:52;7.63;;;6.82;;
12407;SDS011;6268;48.188;17.134;2023-05-21T07:18:15;6.55;;;5.95;;
12407;SDS011;6268;48.188;17.134;2023-05-21T07:21:38;7.05;;;6.45;;
12407;SDS011;6268;48.188;17.134;2023-05-21T07:24:59;6.88;;;5.82;;
12407;SDS011;6268;48.188;17.134;2023-05-21T07:28:21;7.18;;;6.47;;
12407;SDS011;6268;48.188;17.134;2023-05-21T07:31:42;17.92;;;15.50;;
12407;SDS011;6268;48.188;17.134;2023-05-21T07:35:05;13.02;;;11.63;;
12407;SDS011;6268;48.188;17.134;2023-05-21T07:38:27;7.05;;;6.50;;
12407;SDS011;6268;48.188;17.134;2023-05-21T07:41:48;7.88;;;5.93;;
12407;SDS011;6268;48.188;17.134;2023-05-21T07:45:10;6.35;;;5.53;;
12407;SDS011;6268;48.188;17.134;2023-05-21T07:48:31;6.15;;;5.57;;
12407;SDS011;6268;48.188;17.134;2023-05-21T07:51:54;6.45;;;5.95;;
12407;SDS011;6268;48.188;17.134;2023-05-21T07:55:15;8.90;;;6.22;;
12407;SDS011;6268;48.188;17.134;2023-05-21T07:58:37;6.35;;;5.35;;
12407;SDS011;6268;48.188;17.134;2023-05-21T08:01:59;5.68;;;5.20;;
12407;SDS011;6268;48.188;17.134;2023-05-21T08:05:20;5.13;;;4.63;;
12407;SDS011;6268;48.188;17.134;2023-05-21T08:08:43;5.53;;;4.88;;
12407;SDS011;6268;48.188;17.134;2023-05-21T08:12:05;6.05;;;5.10;;
12407;SDS011;6268;48.188;17.134;2023-05-21T08:15:26;6.13;;;5.40;;
12407;SDS011;6268;48.188;17.134;2023-05-21T08:18:49;6.10;;;5.60;;
12407;SDS011;6268;48.188;17.134;2023-05-21T08:22:10;6.38;;;5.85;;
12407;SDS011;6268;48.188;17.134;2023-05-21T08:25:33;5.28;;;4.80;;
12407;SDS011;6268;48.188;17.134;2023-05-21T08:28:54;5.47;;;5.07;;
12407;SDS011;6268;48.188;17.134;2023-05-21T08:32:15;7.93;;;7.13;;
12407;SDS011;6268;48.188;17.134;2023-05-21T08:35:37;5.78;;;5.25;;
12407;SDS011;6268;48.188;17.134;2023-05-21T08:38:58;7.03;;;6.28;;
12407;SDS011;6268;48.188;17.134;2023-05-21T08:42:23;6.60;;;5.15;;
12407;SDS011;6268;48.188;17.134;2023-05-21T08:45:55;5.65;;;5.15;;
12407;SDS011;6268;48.188;17.134;2023-05-21T08:49:17;6.22;;;5.65;;
12407;SDS011;6268;48.188;17.134;2023-05-21T08:52:45;8.00;;;5.65;;
12407;SDS011;6268;48.188;17.134;2023-05-21T08:56:07;6.20;;;5.35;;
12407;SDS011;6268;48.188;17.134;2023-05-21T08:59:31;6.05;;;4.70;;
12407;SDS011;6268;48.188;17.134;2023-05-21T09:02:52;7.65;;;5.25;;
12407;SDS011;6268;48.188;17.134;2023-05-21T09:06:15;5.97;;;5.40;;
12407;SDS011;6268;48.188;17.134;2023-05-21T09:09:38;8.25;;;5.15;;
12407;SDS011;6268;48.188;17.134;2023-05-21T09:13:08;5.53;;;5.10;;
12407;SDS011;6268;48.188;17.134;2023-05-21T09:16:32;5.80;;;5.40;;
12407;SDS011;6268;48.188;17.134;2023-05-21T09:20:09;5.45;;;5.05;;
12407;SDS011;6268;48.188;17.134;2023-05-21T09:23:51;6.13;;;5.45;;
12407;SDS011;6268;48.188;17.134;2023-05-21T09:27:15;5.13;;;4.72;;
12407;SDS011;6268;48.188;17.134;2023-05-21T09:30:42;6.78;;;5.75;;
12407;SDS011;6268;48.188;17.134;2023-05-21T09:34:09;5.22;;;4.82;;
12407;SDS011;6268;48.188;17.134;2023-05-21T09:37:38;5.65;;;5.20;;
12407;SDS011;6268;48.188;17.134;2023-05-21T09:41:03;6.15;;;4.85;;
12407;SDS011;6268;48.188;17.134;2023-05-21T09:44:24;5.20;;;4.80;;
12407;SDS011;6268;48.188;17.134;2023-05-21T09:47:48;5.60;;;5.20;;
12407;SDS011;6268;48.188;17.134;2023-05-21T09:51:11;5.32;;;4.93;;
12407;SDS011;6268;48.188;17.134;2023-05-21T09:54:33;5.63;;;5.10;;
12407;SDS011;6268;48.188;17.134;2023-05-21T09:57:56;6.07;;;5.57;;
12407;SDS011;6268;48.188;17.134;2023-05-21T10:01:20;5.80;;;5.30;;
12407;SDS011;6268;48.188;17.134;2023-05-21T10:04:47;4.90;;;4.50;;
12407;SDS011;6268;48.188;17.134;2023-05-21T10:08:09;5.63;;;5.05;;
12407;SDS011;6268;48.188;17.134;2023-05-21T10:11:34;6.15;;;4.68;;
12407;SDS011;6268;48.188;17.134;2023-05-21T10:14:58;4.93;;;4.53;;
12407;SDS011;6268;48.188;17.134;2023-05-21T10:18:26;5.53;;;5.00;;
12407;SDS011;6268;48.188;17.134;2023-05-21T10:21:51;4.85;;;4.55;;
12407;SDS011;6268;48.188;17.134;2023-05-21T10:25:14;4.47;;;4.03;;
12407;SDS011;6268;48.188;17.134;2023-05-21T10:28:36;5.65;;;5.20;;
12407;SDS011;6268;48.188;17.134;2023-05-21T10:31:59;4.78;;;4.38;;
12407;SDS011;6268;48.188;17.134;2023-05-21T10:35:22;8.02;;;6.05;;
12407;SDS011;6268;48.188;17.134;2023-05-21T10:38:46;5.93;;;4.80;;
12407;SDS011;6268;48.188;17.134;2023-05-21T10:42:14;5.55;;;5.05;;
12407;SDS011;6268;48.188;17.134;2023-05-21T10:46:00;5.97;;;5.43;;
12407;SDS011;6268;48.188;17.134;2023-05-21T10:50:02;5.20;;;4.90;;
12407;SDS011;6268;48.188;17.134;2023-05-21T10:53:43;5.70;;;5.20;;
12407;SDS011;6268;48.188;17.134;2023-05-21T10:57:33;5.95;;;5.35;;
12407;SDS011;6268;48.188;17.134;2023-05-21T11:01:38;6.88;;;5.38;;
12407;SDS011;6268;48.188;17.134;2023-05-21T11:05:01;5.50;;;5.20;;
12407;SDS011;6268;48.188;17.134;2023-05-21T11:08:23;6.88;;;4.45;;
12407;SDS011;6268;48.188;17.134;2023-05-21T11:11:49;8.18;;;5.10;;
12407;SDS011;6268;48.188;17.134;2023-05-21T11:15:26;8.48;;;5.65;;
12407;SDS011;6268;48.188;17.134;2023-05-21T11:18:57;5.03;;;4.63;;
12407;SDS011;6268;48.188;17.134;2023-05-21T11:22:23;6.28;;;5.68;;
12407;SDS011;6268;48.188;17.134;2023-05-21T11:25:51;5.40;;;4.88;;
12407;SDS011;6268;48.188;17.134;2023-05-21T11:33:16;5.82;;;5.32;;
12407;SDS011;6268;48.188;17.134;2023-05-21T11:36:43;7.22;;;5.60;;
12407;SDS011;6268;48.188;17.134;2023-05-21T11:40:21;9.65;;;5.05;;
12407;SDS011;6268;48.188;17.134;2023-05-21T11:43:47;5.93;;;4.47;;
12407;SDS011;6268;48.188;17.134;2023-05-21T11:47:22;4.90;;;4.40;;
12407;SDS011;6268;48.188;17.134;2023-05-21T11:50:44;5.20;;;4.75;;
12407;SDS011;6268;48.188;17.134;2023-05-21T11:54:07;5.15;;;4.75;;
12407;SDS011;6268;48.188;17.134;2023-05-21T11:57:32;6.88;;;5.35;;
12407;SDS011;6268;48.188;17.134;2023-05-21T12:00:57;6.55;;;5.60;;
12407;SDS011;6268;48.188;17.134;2023-05-21T12:04:19;5.20;;;4.80;;
12407;SDS011;6268;48.188;17.134;2023-05-21T12:07:41;5.70;;;5.32;;
12407;SDS011;6268;48.188;17.134;2023-05-21T12:11:05;5.78;;;4.85;;
12407;SDS011;6268;48.188;17.134;2023-05-21T12:14:28;5.22;;;4.72;;
12407;SDS011;6268;48.188;17.134;2023-05-21T12:17:50;4.82;;;4.25;;
12407;SDS011;6268;48.188;17.134;2023-05-21T12:21:12;5.90;;;5.40;;
12407;SDS011;6268;48.188;17.134;2023-05-21T12:24:34;5.90;;;5.30;;
12407;SDS011;6268;48.188;17.134;2023-05-21T12:27:57;6.18;;;5.35;;
12407;SDS011;6268;48.188;17.134;2023-05-21T12:31:22;5.13;;;4.80;;
12407;SDS011;6268;48.188;17.134;2023-05-21T12:34:44;5.05;;;4.75;;
12407;SDS011;6268;48.188;17.134;2023-05-21T12:38:06;5.53;;;4.88;;
12407;SDS011;6268;48.188;17.134;2023-05-21T12:41:28;5.53;;;4.97;;
12407;SDS011;6268;48.188;17.134;2023-05-21T12:44:53;7.30;;;6.60;;
12407;SDS011;6268;48.188;17.134;2023-05-21T12:48:16;5.70;;;5.28;;
12407;SDS011;6268;48.188;17.134;2023-05-21T12:51:52;5.38;;;4.88;;
12407;SDS011;6268;48.188;17.134;2023-05-21T12:55:16;5.07;;;4.78;;
12407;SDS011;6268;48.188;17.134;2023-05-21T12:58:38;6.07;;;5.57;;
12407;SDS011;6268;48.188;17.134;2023-05-21T13:02:12;5.47;;;5.03;;
12407;SDS011;6268;48.188;17.134;2023-05-21T13:05:41;4.90;;;4.50;;
12407;SDS011;6268;48.188;17.134;2023-05-21T13:09:09;5.28;;;4.88;;
12407;SDS011;6268;48.188;17.134;2023-05-21T13:12:31;5.07;;;4.72;;
12407;SDS011;6268;48.188;17.134;2023-05-21T13:15:53;6.43;;;5.40;;
12407;SDS011;6268;48.188;17.134;2023-05-21T13:19:15;6.15;;;5.50;;
12407;SDS011;6268;48.188;17.134;2023-05-21T13:22:39;6.20;;;5.60;;
12407;SDS011;6268;48.188;17.134;2023-05-21T13:26:01;6.85;;;5.25;;
12407;SDS011;6268;48.188;17.134;2023-05-21T13:29:23;5.57;;;4.85;;
12407;SDS011;6268;48.188;17.134;2023-05-21T13:32:45;5.43;;;4.97;;
12407;SDS011;6268;48.188;17.134;2023-05-21T13:36:07;5.03;;;4.60;;
12407;SDS011;6268;48.188;17.134;2023-05-21T13:39:29;6.07;;;5.20;;
12407;SDS011;6268;48.188;17.134;2023-05-21T13:42:51;4.78;;;4.22;;
12407;SDS011;6268;48.188;17.134;2023-05-21T13:46:12;4.75;;;4.35;;
12407;SDS011;6268;48.188;17.134;2023-05-21T13:49:35;4.30;;;3.90;;
12407;SDS011;6268;48.188;17.134;2023-05-21T13:52:57;4.70;;;4.28;;
12407;SDS011;6268;48.188;17.134;2023-05-21T13:56:22;5.65;;;5.10;;
12407;SDS011;6268;48.188;17.134;2023-05-21T13:59:43;5.82;;;4.57;;
12407;SDS011;6268;48.188;17.134;2023-05-21T14:03:09;9.13;;;6.15;;
12407;SDS011;6268;48.188;17.134;2023-05-21T14:06:34;6.60;;;5.90;;
12407;SDS011;6268;48.188;17.134;2023-05-21T14:09:59;6.00;;;4.75;;
12407;SDS011;6268;48.188;17.134;2023-05-21T14:13:22;5.57;;;5.05;;
12407;SDS011;6268;48.188;17.134;2023-05-21T14:16:44;6.78;;;6.10;;
12407;SDS011;6268;48.188;17.134;2023-05-21T14:20:08;4.97;;;4.57;;
12407;SDS011;6268;48.188;17.134;2023-05-21T14:23:30;5.45;;;4.95;;
12407;SDS011;6268;48.188;17.134;2023-05-21T14:26:51;9.00;;;4.10;;
12407;SDS011;6268;48.188;17.134;2023-05-21T14:30:14;7.10;;;4.68;;
12407;SDS011;6268;48.188;17.134;2023-05-21T14:33:36;15.98;;;9.48;;
12407;SDS011;6268;48.188;17.134;2023-05-21T14:36:58;8.90;;;7.82;;
12407;SDS011;6268;48.188;17.134;2023-05-21T14:40:19;6.63;;;6.13;;
12407;SDS011;6268;48.188;17.134;2023-05-21T14:43:40;8.55;;;7.85;;
12407;SDS011;6268;48.188;17.134;2023-05-21T14:47:03;5.43;;;4.93;;
12407;SDS011;6268;48.188;17.134;2023-05-21T14:50:25;5.55;;;4.28;;
12407;SDS011;6268;48.188;17.134;2023-05-21T14:53:46;5.60;;;4.88;;
12407;SDS011;6268;48.188;17.134;2023-05-21T14:57:07;5.43;;;4.63;;
12407;SDS011;6268;48.188;17.134;2023-05-21T15:00:29;8.10;;;5.20;;
12407;SDS011;6268;48.188;17.134;2023-05-21T15:03:53;6.00;;;5.50;;
12407;SDS011;6268;48.188;17.134;2023-05-21T15:07:14;5.65;;;5.25;;
12407;SDS011;6268;48.188;17.134;2023-05-21T15:10:35;5.63;;;5.20;;
12407;SDS011;6268;48.188;17.134;2023-05-21T15:13:59;5.43;;;5.03;;
12407;SDS011;6268;48.188;17.134;2023-05-21T15:17:20;6.35;;;4.85;;
12407;SDS011;6268;48.188;17.134;2023-05-21T15:20:43;5.43;;;4.82;;
12407;SDS011;6268;48.188;17.134;2023-05-21T15:24:05;5.97;;;5.45;;
12407;SDS011;6268;48.188;17.134;2023-05-21T15:27:26;6.85;;;6.32;;
12407;SDS011;6268;48.188;17.134;2023-05-21T15:30:48;6.10;;;5.32;;
12407;SDS011;6268;48.188;17.134;2023-05-21T15:34:10;12.52;;;11.02;;
12407;SDS011;6268;48.188;17.134;2023-05-21T15:37:33;10.32;;;7.50;;
12407;SDS011;6268;48.188;17.134;2023-05-21T15:40:55;12.45;;;6.20;;
12407;SDS011;6268;48.188;17.134;2023-05-21T15:44:18;5.35;;;4.88;;
12407;SDS011;6268;48.188;17.134;2023-05-21T15:47:40;8.50;;;6.55;;
12407;SDS011;6268;48.188;17.134;2023-05-21T15:51:02;5.72;;;5.32;;
12407;SDS011;6268;48.188;17.134;2023-05-21T15:54:27;7.93;;;6.03;;
12407;SDS011;6268;48.188;17.134;2023-05-21T15:57:49;6.53;;;5.93;;
12407;SDS011;6268;48.188;17.134;2023-05-21T16:01:11;7.57;;;6.85;;
12407;SDS011;6268;48.188;17.134;2023-05-21T16:04:32;6.65;;;6.05;;
12407;SDS011;6268;48.188;17.134;2023-05-21T16:07:54;9.65;;;7.03;;
12407;SDS011;6268;48.188;17.134;2023-05-21T16:11:17;6.20;;;5.78;;
12407;SDS011;6268;48.188;17.134;2023-05-21T16:14:40;5.63;;;4.80;;
12407;SDS011;6268;48.188;17.134;2023-05-21T16:18:01;8.77;;;5.80;;
12407;SDS011;6268;48.188;17.134;2023-05-21T16:21:23;5.88;;;5.32;;
12407;SDS011;6268;48.188;17.134;2023-05-21T16:24:50;16.80;;;14.77;;
12407;SDS011;6268;48.188;17.134;2023-05-21T16:28:13;11.68;;;10.52;;
12407;SDS011;6268;48.188;17.134;2023-05-21T16:31:35;6.47;;;5.88;;
12407;SDS011;6268;48.188;17.134;2023-05-21T16:34:56;6.35;;;5.88;;
12407;SDS011;6268;48.188;17.134;2023-05-21T16:38:18;6.78;;;5.40;;
12407;SDS011;6268;48.188;17.134;2023-05-21T16:41:40;8.43;;;5.30;;
12407;SDS011;6268;48.188;17.134;2023-05-21T16:45:06;6.18;;;5.13;;
12407;SDS011;6268;48.188;17.134;2023-05-21T16:48:28;5.90;;;5.50;;
12407;SDS011;6268;48.188;17.134;2023-05-21T16:51:50;6.10;;;5.50;;
12407;SDS011;6268;48.188;17.134;2023-05-21T16:55:11;6.18;;;5.68;;
12407;SDS011;6268;48.188;17.134;2023-05-21T16:58:33;5.03;;;4.63;;
12407;SDS011;6268;48.188;17.134;2023-05-21T17:01:56;5.88;;;5.38;;
12407;SDS011;6268;48.188;17.134;2023-05-21T17:05:18;6.10;;;4.82;;
12407;SDS011;6268;48.188;17.134;2023-05-21T17:08:40;9.65;;;8.75;;
12407;SDS011;6268;48.188;17.134;2023-05-21T17:12:02;7.72;;;5.75;;
12407;SDS011;6268;48.188;17.134;2023-05-21T17:15:29;7.40;;;6.72;;
12407;SDS011;6268;48.188;17.134;2023-05-21T17:18:52;6.70;;;6.10;;
12407;SDS011;6268;48.188;17.134;2023-05-21T17:22:13;7.93;;;6.82;;
12407;SDS011;6268;48.188;17.134;2023-05-21T17:25:35;6.38;;;5.88;;
12407;SDS011;6268;48.188;17.134;2023-05-21T17:28:56;10.10;;;6.50;;
12407;SDS011;6268;48.188;17.134;2023-05-21T17:32:18;6.00;;;4.75;;
12407;SDS011;6268;48.188;17.134;2023-05-21T17:35:41;6.80;;;5.80;;
12407;SDS011;6268;48.188;17.134;2023-05-21T17:39:03;5.60;;;4.82;;
12407;SDS011;6268;48.188;17.134;2023-05-21T17:42:24;5.57;;;5.07;;
12407;SDS011;6268;48.188;17.134;2023-05-21T17:45:45;7.40;;;5.10;;
12407;SDS011;6268;48.188;17.134;2023-05-21T17:49:07;6.60;;;6.03;;
12407;SDS011;6268;48.188;17.134;2023-05-21T17:52:30;9.68;;;8.77;;
12407;SDS011;6268;48.188;17.134;2023-05-21T17:55:51;7.72;;;7.13;;
12407;SDS011;6268;48.188;17.134;2023-05-21T17:59:12;4.70;;;4.35;;
12407;SDS011;6268;48.188;17.134;2023-05-21T18:02:35;5.93;;;5.32;;
12407;SDS011;6268;48.188;17.134;2023-05-21T18:05:57;6.88;;;6.20;;
12407;SDS011;6268;48.188;17.134;2023-05-21T18:09:19;7.32;;;6.72;;
12407;SDS011;6268;48.188;17.134;2023-05-21T18:12:41;7.15;;;6.43;;
12407;SDS011;6268;48.188;17.134;2023-05-21T18:16:03;5.78;;;5.18;;
12407;SDS011;6268;48.188;17.134;2023-05-21T18:19:25;5.95;;;5.53;;
12407;SDS011;6268;48.188;17.134;2023-05-21T18:22:46;6.53;;;5.97;;
12407;SDS011;6268;48.188;17.134;2023-05-21T18:26:09;6.55;;;5.82;;
12407;SDS011;6268;48.188;17.134;2023-05-21T18:29:30;6.85;;;6.00;;
12407;SDS011;6268;48.188;17.134;2023-05-21T18:32:51;6.63;;;6.03;;
12407;SDS011;6268;48.188;17.134;2023-05-21T18:36:13;7.00;;;5.72;;
12407;SDS011;6268;48.188;17.134;2023-05-21T18:39:35;7.45;;;6.65;;
12407;SDS011;6268;48.188;17.134;2023-05-21T18:43:00;6.80;;;6.30;;
12407;SDS011;6268;48.188;17.134;2023-05-21T18:46:21;6.50;;;5.93;;
12407;SDS011;6268;48.188;17.134;2023-05-21T18:49:42;7.80;;;6.30;;
12407;SDS011;6268;48.188;17.134;2023-05-21T18:53:07;8.00;;;6.18;;
12407;SDS011;6268;48.188;17.134;2023-05-21T18:56:28;6.97;;;6.28;;
12407;SDS011;6268;48.188;17.134;2023-05-21T18:59:51;6.80;;;6.20;;
12407;SDS011;6268;48.188;17.134;2023-05-21T19:03:12;7.65;;;6.43;;
12407;SDS011;6268;48.188;17.134;2023-05-21T19:06:33;6.90;;;6.32;;
12407;SDS011;6268;48.188;17.134;2023-05-21T19:09:55;7.05;;;6.45;;
12407;SDS011;6268;48.188;17.134;2023-05-21T19:13:18;6.97;;;6.30;;
12407;SDS011;6268;48.188;17.134;2023-05-21T19:16:41;7.47;;;6.88;;
12407;SDS011;6268;48.188;17.134;2023-05-21T19:20:05;7.07;;;6.47;;
12407;SDS011;6268;48.188;17.134;2023-05-21T19:23:27;6.63;;;6.10;;
12407;SDS011;6268;48.188;17.134;2023-05-21T19:26:48;7.00;;;6.25;;
12407;SDS011;6268;48.188;17.134;2023-05-21T19:30:10;7.90;;;6.68;;
12407;SDS011;6268;48.188;17.134;2023-05-21T19:33:33;7.97;;;7.13;;
12407;SDS011;6268;48.188;17.134;2023-05-21T19:36:54;7.45;;;6.65;;
12407;SDS011;6268;48.188;17.134;2023-05-21T19:40:16;7.47;;;6.78;;
12407;SDS011;6268;48.188;17.134;2023-05-21T19:43:37;7.30;;;6.70;;
12407;SDS011;6268;48.188;17.134;2023-05-21T19:46:59;6.38;;;5.78;;
12407;SDS011;6268;48.188;17.134;2023-05-21T19:50:22;8.05;;;6.05;;
12407;SDS011;6268;48.188;17.134;2023-05-21T19:53:43;8.23;;;7.03;;
12407;SDS011;6268;48.188;17.134;2023-05-21T19:57:05;8.52;;;7.68;;
12407;SDS011;6268;48.188;17.134;2023-05-21T20:00:26;6.97;;;6.38;;
12407;SDS011;6268;48.188;17.134;2023-05-21T20:03:48;7.70;;;5.70;;
12407;SDS011;6268;48.188;17.134;2023-05-21T20:07:11;7.53;;;5.68;;
12407;SDS011;6268;48.188;17.134;2023-05-21T20:10:33;6.28;;;5.82;;
12407;SDS011;6268;48.188;17.134;2023-05-21T20:13:54;6.90;;;5.82;;
12407;SDS011;6268;48.188;17.134;2023-05-21T20:17:16;6.32;;;5.75;;
12407;SDS011;6268;48.188;17.134;2023-05-21T20:20:38;7.72;;;6.00;;
12407;SDS011;6268;48.188;17.134;2023-05-21T20:24:01;6.45;;;5.85;;